sensor_id;sensor_type;location;lat;lon;timestamp;pressure;altitude;pressure_sealevel;temperature;humidity
50592;BME280;36548;50.506;30.834;2023-04-02T00:02:24;98902.44;;;11.48;74.70
50592;BME280;36548;50.506;30.834;2023-04-02T00:06:35;98911.21;;;11.40;74.60
50592;BME280;36548;50.506;30.834;2023-04-02T00:07:53;98910.36;;;11.49;74.88
50592;BME280;36548;50.506;30.834;2023-04-02T00:09:21;98917.70;;;11.37;74.93
50592;BME280;36548;50.506;30.834;2023-04-02T00:10:34;98919.97;;;11.42;74.77
50592;BME280;36548;50.506;30.834;2023-04-02T00:11:51;98898.08;;;11.47;74.84
50592;BME280;36548;50.506;30.834;2023-04-02T00:14:33;98906.39;;;11.43;74.81
50592;BME280;36548;50.506;30.834;2023-04-02T00:15:45;98902.00;;;11.33;75.00
50592;BME280;36548;50.506;30.834;2023-04-02T00:17:04;98905.27;;;11.46;75.26
50592;BME280;36548;50.506;30.834;2023-04-02T00:18:16;98907.80;;;11.38;75.08
50592;BME280;36548;50.506;30.834;2023-04-02T00:19:54;98907.81;;;11.48;75.14
50592;BME280;36548;50.506;30.834;2023-04-02T00:21:13;98911.49;;;11.37;75.06
50592;BME280;36548;50.506;30.834;2023-04-02T00:22:31;98903.56;;;11.45;75.27
50592;BME280;36548;50.506;30.834;2023-04-02T00:23:41;98917.25;;;11.32;75.27
50592;BME280;36548;50.506;30.834;2023-04-02T00:25:00;98910.50;;;11.48;75.32
50592;BME280;36548;50.506;30.834;2023-04-02T00:27:41;98902.89;;;11.53;75.17
50592;BME280;36548;50.506;30.834;2023-04-02T00:28:52;98918.02;;;11.44;74.99
50592;BME280;36548;50.506;30.834;2023-04-02T00:31:49;98908.95;;;11.55;75.00
50592;BME280;36548;50.506;30.834;2023-04-02T00:33:00;98902.73;;;11.45;74.88
50592;BME280;36548;50.506;30.834;2023-04-02T00:35:40;98906.02;;;11.58;74.74
50592;BME280;36548;50.506;30.834;2023-04-02T00:36:51;98903.56;;;11.45;74.69
50592;BME280;36548;50.506;30.834;2023-04-02T00:38:22;98906.27;;;11.55;74.84
50592;BME280;36548;50.506;30.834;2023-04-02T00:39:37;98909.83;;;11.55;74.81
50592;BME280;36548;50.506;30.834;2023-04-02T00:40:48;98912.50;;;11.46;74.91
50592;BME280;36548;50.506;30.834;2023-04-02T00:42:06;98911.53;;;11.56;75.11
50592;BME280;36548;50.506;30.834;2023-04-02T00:43:15;98908.69;;;11.48;75.05
50592;BME280;36548;50.506;30.834;2023-04-02T00:44:35;98911.95;;;11.62;74.81
50592;BME280;36548;50.506;30.834;2023-04-02T00:45:46;98908.41;;;11.51;74.78
50592;BME280;36548;50.506;30.834;2023-04-02T00:47:02;98913.78;;;11.51;74.79
50592;BME280;36548;50.506;30.834;2023-04-02T00:49:39;98908.86;;;11.66;74.66
50592;BME280;36548;50.506;30.834;2023-04-02T00:50:51;98910.80;;;11.54;74.51
50592;BME280;36548;50.506;30.834;2023-04-02T00:52:05;98906.41;;;11.53;74.59
50592;BME280;36548;50.506;30.834;2023-04-02T00:53:23;98907.02;;;11.67;74.37
50592;BME280;36548;50.506;30.834;2023-04-02T00:54:50;98917.30;;;11.52;74.45
50592;BME280;36548;50.506;30.834;2023-04-02T00:57:34;98907.02;;;11.67;74.45
50592;BME280;36548;50.506;30.834;2023-04-02T00:58:49;98916.33;;;11.53;74.59
50592;BME280;36548;50.506;30.834;2023-04-02T01:01:36;98917.02;;;11.55;74.35
50592;BME280;36548;50.506;30.834;2023-04-02T01:04:34;98914.49;;;11.63;74.88
50592;BME280;36548;50.506;30.834;2023-04-02T01:07:08;98915.91;;;11.67;74.42
50592;BME280;36548;50.506;30.834;2023-04-02T01:08:43;98922.98;;;11.58;74.35
50592;BME280;36548;50.506;30.834;2023-04-02T01:13:05;98916.36;;;11.72;74.46
50592;BME280;36548;50.506;30.834;2023-04-02T01:16:18;98911.56;;;11.76;74.08
50592;BME280;36548;50.506;30.834;2023-04-02T01:22:01;98924.41;;;11.63;74.29
50592;BME280;36548;50.506;30.834;2023-04-02T01:23:20;98911.28;;;11.79;73.95
50592;BME280;36548;50.506;30.834;2023-04-02T01:24:33;98922.02;;;11.69;73.86
50592;BME280;36548;50.506;30.834;2023-04-02T01:26:11;98923.59;;;11.82;73.79
50592;BME280;36548;50.506;30.834;2023-04-02T01:27:23;98922.86;;;11.70;73.63
50592;BME280;36548;50.506;30.834;2023-04-02T01:30:15;98926.97;;;11.74;73.78
50592;BME280;36548;50.506;30.834;2023-04-02T01:31:27;98924.41;;;11.63;73.97
50592;BME280;36548;50.506;30.834;2023-04-02T01:32:43;98928.53;;;11.76;73.69
50592;BME280;36548;50.506;30.834;2023-04-02T01:33:53;98929.36;;;11.67;73.61
50592;BME280;36548;50.506;30.834;2023-04-02T01:35:10;98935.03;;;11.74;73.84
50592;BME280;36548;50.506;30.834;2023-04-02T01:38:08;98924.72;;;11.79;73.63
50592;BME280;36548;50.506;30.834;2023-04-02T01:42:30;98922.86;;;11.70;73.73
50592;BME280;36548;50.506;30.834;2023-04-02T01:43:52;98927.23;;;11.61;73.83
50592;BME280;36548;50.506;30.834;2023-04-02T01:45:09;98921.86;;;11.61;74.19
50592;BME280;36548;50.506;30.834;2023-04-02T01:46:28;98920.47;;;11.76;73.81
50592;BME280;36548;50.506;30.834;2023-04-02T01:47:38;98924.98;;;11.66;73.79
50592;BME280;36548;50.506;30.834;2023-04-02T01:48:55;98923.01;;;11.78;73.76
50592;BME280;36548;50.506;30.834;2023-04-02T01:51:32;98930.37;;;11.66;73.73
50592;BME280;36548;50.506;30.834;2023-04-02T01:52:44;98927.25;;;11.71;73.55
50592;BME280;36548;50.506;30.834;2023-04-02T01:54:03;98933.63;;;11.80;73.57
50592;BME280;36548;50.506;30.834;2023-04-02T01:55:23;98931.93;;;11.69;73.59
50592;BME280;36548;50.506;30.834;2023-04-02T01:56:36;98920.03;;;11.81;73.79
50592;BME280;36548;50.506;30.834;2023-04-02T01:57:48;98928.09;;;11.71;73.67
50592;BME280;36548;50.506;30.834;2023-04-02T01:59:07;98933.23;;;11.84;73.59
50592;BME280;36548;50.506;30.834;2023-04-02T02:00:20;98926.97;;;11.74;73.60
50592;BME280;36548;50.506;30.834;2023-04-02T02:01:51;98926.97;;;11.74;73.29
50592;BME280;36548;50.506;30.834;2023-04-02T02:03:01;98928.23;;;11.70;73.45
50592;BME280;36548;50.506;30.834;2023-04-02T02:04:17;98923.01;;;11.78;73.29
50592;BME280;36548;50.506;30.834;2023-04-02T02:05:28;98928.38;;;11.68;73.25
50592;BME280;36548;50.506;30.834;2023-04-02T02:06:44;98926.41;;;11.70;73.44
50592;BME280;36548;50.506;30.834;2023-04-02T02:07:55;98930.34;;;11.56;73.67
50592;BME280;36548;50.506;30.834;2023-04-02T02:10:40;98922.45;;;11.65;73.85
50592;BME280;36548;50.506;30.834;2023-04-02T02:11:50;98925.95;;;11.55;73.88
50592;BME280;36548;50.506;30.834;2023-04-02T02:13:12;98920.45;;;11.67;73.75
50592;BME280;36548;50.506;30.834;2023-04-02T02:14:25;98934.16;;;11.54;73.86
50592;BME280;36548;50.506;30.834;2023-04-02T02:15:35;98924.53;;;11.51;73.90
50592;BME280;36548;50.506;30.834;2023-04-02T02:16:53;98919.59;;;11.56;74.15
50592;BME280;36548;50.506;30.834;2023-04-02T02:18:06;98940.94;;;11.48;74.16
50592;BME280;36548;50.506;30.834;2023-04-02T02:19:33;98929.20;;;11.59;74.15
50592;BME280;36548;50.506;30.834;2023-04-02T02:20:43;98930.44;;;11.45;74.05
50592;BME280;36548;50.506;30.834;2023-04-02T02:23:22;98929.06;;;11.51;74.56
50592;BME280;36548;50.506;30.834;2023-04-02T02:24:32;98928.17;;;11.40;74.71
50592;BME280;36548;50.506;30.834;2023-04-02T02:25:45;98928.76;;;11.44;74.62
50592;BME280;36548;50.506;30.834;2023-04-02T02:27:08;98933.27;;;11.43;74.47
50592;BME280;36548;50.506;30.834;2023-04-02T02:28:30;98923.96;;;11.57;74.37
50592;BME280;36548;50.506;30.834;2023-04-02T02:29:42;98931.59;;;11.42;74.49
50592;BME280;36548;50.506;30.834;2023-04-02T02:31:13;98927.77;;;11.55;74.43
50592;BME280;36548;50.506;30.834;2023-04-02T02:32:28;98931.84;;;11.39;74.49
50592;BME280;36548;50.506;30.834;2023-04-02T02:33:50;98928.20;;;11.50;74.49
50592;BME280;36548;50.506;30.834;2023-04-02T02:35:10;98929.28;;;11.38;74.65
50592;BME280;36548;50.506;30.834;2023-04-02T02:36:29;98924.67;;;11.50;74.65
50592;BME280;36548;50.506;30.834;2023-04-02T02:37:42;98930.16;;;11.38;74.87
50592;BME280;36548;50.506;30.834;2023-04-02T02:39:36;98919.02;;;11.53;74.78
50592;BME280;36548;50.506;30.834;2023-04-02T02:40:49;98927.19;;;11.41;74.65
50592;BME280;36548;50.506;30.834;2023-04-02T02:43:22;98936.51;;;11.37;74.62
50592;BME280;36548;50.506;30.834;2023-04-02T02:45:59;98933.85;;;11.47;74.69
50592;BME280;36548;50.506;30.834;2023-04-02T02:47:17;98935.92;;;11.34;74.85
50592;BME280;36548;50.506;30.834;2023-04-02T02:48:33;98934.24;;;11.33;74.73
50592;BME280;36548;50.506;30.834;2023-04-02T02:49:53;98928.62;;;11.46;74.80
50592;BME280;36548;50.506;30.834;2023-04-02T02:51:07;98938.61;;;11.34;74.81
50592;BME280;36548;50.506;30.834;2023-04-02T02:52:31;98935.95;;;11.43;74.78
50592;BME280;36548;50.506;30.834;2023-04-02T02:53:52;98936.06;;;11.32;74.71
50592;BME280;36548;50.506;30.834;2023-04-02T02:56:33;98932.84;;;11.38;74.87
50592;BME280;36548;50.506;30.834;2023-04-02T02:57:48;98945.66;;;11.25;75.21
50592;BME280;36548;50.506;30.834;2023-04-02T02:59:05;98935.08;;;11.33;75.47
50592;BME280;36548;50.506;30.834;2023-04-02T03:00:19;98936.03;;;11.22;75.61
50592;BME280;36548;50.506;30.834;2023-04-02T03:01:37;98931.14;;;11.37;75.28
50592;BME280;36548;50.506;30.834;2023-04-02T03:02:47;98933.66;;;11.29;75.13
50592;BME280;36548;50.506;30.834;2023-04-02T03:03:58;98938.19;;;11.29;75.22
50592;BME280;36548;50.506;30.834;2023-04-02T03:05:20;98932.70;;;11.40;75.00
50592;BME280;36548;50.506;30.834;2023-04-02T03:06:30;98935.50;;;11.29;75.15
50592;BME280;36548;50.506;30.834;2023-04-02T03:07:40;98943.80;;;11.25;75.24
50592;BME280;36548;50.506;30.834;2023-04-02T03:08:59;98942.69;;;11.28;75.16
50592;BME280;36548;50.506;30.834;2023-04-02T03:11:38;98941.60;;;11.40;74.79
50592;BME280;36548;50.506;30.834;2023-04-02T03:14:17;98943.59;;;11.38;75.02
50592;BME280;36548;50.506;30.834;2023-04-02T03:16:52;98948.09;;;11.38;74.68
50592;BME280;36548;50.506;30.834;2023-04-02T03:22:34;98954.41;;;11.27;74.92
50592;BME280;36548;50.506;30.834;2023-04-02T03:24:04;98944.84;;;11.34;75.14
50592;BME280;36548;50.506;30.834;2023-04-02T03:26:53;98950.92;;;11.36;74.96
50592;BME280;36548;50.506;30.834;2023-04-02T03:28:06;98953.71;;;11.25;75.44
50592;BME280;36548;50.506;30.834;2023-04-02T03:29:32;98958.56;;;11.41;74.86
50592;BME280;36548;50.506;30.834;2023-04-02T03:30:46;98953.44;;;11.28;74.61
50592;BME280;36548;50.506;30.834;2023-04-02T03:33:26;98951.65;;;11.38;74.67
50592;BME280;36548;50.506;30.834;2023-04-02T03:34:52;98965.05;;;11.29;74.57
50592;BME280;36548;50.506;30.834;2023-04-02T03:36:36;98956.44;;;11.35;74.80
50592;BME280;36548;50.506;30.834;2023-04-02T03:37:57;98958.80;;;11.28;74.66
50592;BME280;36548;50.506;30.834;2023-04-02T03:39:24;98964.87;;;11.20;74.44
50592;BME280;36548;50.506;30.834;2023-04-02T03:42:17;98962.43;;;11.17;74.86
50592;BME280;36548;50.506;30.834;2023-04-02T03:43:42;98961.63;;;11.26;75.41
50592;BME280;36548;50.506;30.834;2023-04-02T03:45:11;98970.11;;;11.22;75.18
50592;BME280;36548;50.506;30.834;2023-04-02T03:46:39;98961.39;;;11.39;74.44
50592;BME280;36548;50.506;30.834;2023-04-02T03:47:59;98962.64;;;11.35;74.18
50592;BME280;36548;50.506;30.834;2023-04-02T03:49:16;98968.12;;;11.24;74.32
50592;BME280;36548;50.506;30.834;2023-04-02T03:50:43;98968.02;;;11.35;74.35
50592;BME280;36548;50.506;30.834;2023-04-02T03:53:26;98975.97;;;11.37;74.09
50592;BME280;36548;50.506;30.834;2023-04-02T03:54:38;98979.14;;;11.21;73.95
50592;BME280;36548;50.506;30.834;2023-04-02T03:55:51;98976.59;;;11.19;74.06
50592;BME280;36548;50.506;30.834;2023-04-02T03:57:02;98977.57;;;11.18;74.04
50592;BME280;36548;50.506;30.834;2023-04-02T03:58:23;98985.06;;;11.15;74.24
50592;BME280;36548;50.506;30.834;2023-04-02T03:59:37;98989.84;;;11.11;74.39
50592;BME280;36548;50.506;30.834;2023-04-02T04:01:03;98969.38;;;11.20;74.41
50592;BME280;36548;50.506;30.834;2023-04-02T04:05:19;98982.94;;;11.18;74.63
50592;BME280;36548;50.506;30.834;2023-04-02T04:06:31;98985.72;;;11.07;74.76
50592;BME280;36548;50.506;30.834;2023-04-02T04:07:42;98995.73;;;11.05;75.08
50592;BME280;36548;50.506;30.834;2023-04-02T04:10:21;98985.77;;;11.17;75.28
50592;BME280;36548;50.506;30.834;2023-04-02T04:11:36;98989.98;;;11.09;75.19
50592;BME280;36548;50.506;30.834;2023-04-02T04:12:54;98985.21;;;11.23;74.83
50592;BME280;36548;50.506;30.834;2023-04-02T04:17:08;98986.36;;;11.20;74.82
50592;BME280;36548;50.506;30.834;2023-04-02T04:21:19;98999.20;;;11.17;74.90
50592;BME280;36548;50.506;30.834;2023-04-02T04:22:39;98990.77;;;11.31;74.50
50592;BME280;36548;50.506;30.834;2023-04-02T04:23:53;99005.30;;;11.19;74.36
50592;BME280;36548;50.506;30.834;2023-04-02T04:25:27;98994.59;;;11.29;74.43
50592;BME280;36548;50.506;30.834;2023-04-02T04:27:05;98999.93;;;11.19;74.47
50592;BME280;36548;50.506;30.834;2023-04-02T04:28:25;98993.59;;;11.30;74.39
50592;BME280;36548;50.506;30.834;2023-04-02T04:31:38;98998.40;;;11.26;74.44
50592;BME280;36548;50.506;30.834;2023-04-02T04:32:57;99009.10;;;11.16;74.63
50592;BME280;36548;50.506;30.834;2023-04-02T04:34:19;98996.42;;;11.28;74.43
50592;BME280;36548;50.506;30.834;2023-04-02T04:36:54;98998.40;;;11.26;74.58
50592;BME280;36548;50.506;30.834;2023-04-02T04:39:44;99007.30;;;11.26;74.59
50592;BME280;36548;50.506;30.834;2023-04-02T04:41:02;99007.39;;;11.15;74.58
50592;BME280;36548;50.506;30.834;2023-04-02T04:43:48;99003.45;;;11.19;74.63
50592;BME280;36548;50.506;30.834;2023-04-02T04:48:01;99003.13;;;11.13;74.79
50592;BME280;36548;50.506;30.834;2023-04-02T04:49:21;99010.40;;;11.22;74.97
50592;BME280;36548;50.506;30.834;2023-04-02T04:50:37;99015.58;;;11.14;75.32
50592;BME280;36548;50.506;30.834;2023-04-02T04:51:57;98998.83;;;11.31;75.19
50592;BME280;36548;50.506;30.834;2023-04-02T04:54:35;99009.47;;;11.33;75.39
50592;BME280;36548;50.506;30.834;2023-04-02T04:55:47;99018.18;;;11.25;75.08
50592;BME280;36548;50.506;30.834;2023-04-02T04:57:01;99015.95;;;11.30;74.82
50592;BME280;36548;50.506;30.834;2023-04-02T04:59:43;99025.59;;;11.33;74.17
50592;BME280;36548;50.506;30.834;2023-04-02T05:02:28;99015.54;;;11.35;74.23
50592;BME280;36548;50.506;30.834;2023-04-02T05:03:45;99021.98;;;11.22;74.22
50592;BME280;36548;50.506;30.834;2023-04-02T05:05:01;99016.38;;;11.35;74.14
50592;BME280;36548;50.506;30.834;2023-04-02T05:07:50;99017.06;;;11.28;74.44
50592;BME280;36548;50.506;30.834;2023-04-02T05:09:05;99021.80;;;11.14;74.59
50592;BME280;36548;50.506;30.834;2023-04-02T05:14:43;99016.09;;;11.29;74.51
50592;BME280;36548;50.506;30.834;2023-04-02T05:15:59;99026.05;;;11.17;74.61
50592;BME280;36548;50.506;30.834;2023-04-02T05:17:27;99022.58;;;11.26;75.17
50592;BME280;36548;50.506;30.834;2023-04-02T05:18:50;99021.42;;;11.19;75.13
50592;BME280;36548;50.506;30.834;2023-04-02T05:20:13;99023.73;;;11.33;75.11
50592;BME280;36548;50.506;30.834;2023-04-02T05:21:48;99032.31;;;11.27;75.46
50592;BME280;36548;50.506;30.834;2023-04-02T05:24:35;99016.97;;;11.39;74.44
50592;BME280;36548;50.506;30.834;2023-04-02T05:27:52;99027.30;;;11.43;74.06
50592;BME280;36548;50.506;30.834;2023-04-02T05:32:20;99023.82;;;11.53;73.93
50592;BME280;36548;50.506;30.834;2023-04-02T05:33:32;99030.13;;;11.42;73.70
50592;BME280;36548;50.506;30.834;2023-04-02T05:34:47;99026.61;;;11.41;73.77
50592;BME280;36548;50.506;30.834;2023-04-02T05:36:06;99024.06;;;11.40;73.56
50592;BME280;36548;50.506;30.834;2023-04-02T05:37:20;99038.33;;;11.40;73.67
50592;BME280;36548;50.506;30.834;2023-04-02T05:39:56;99030.86;;;11.44;74.06
50592;BME280;36548;50.506;30.834;2023-04-02T05:41:20;99041.43;;;11.36;74.26
50592;BME280;36548;50.506;30.834;2023-04-02T05:42:35;99024.09;;;11.50;73.99
50592;BME280;36548;50.506;30.834;2023-04-02T05:43:50;99031.25;;;11.39;74.01
50592;BME280;36548;50.506;30.834;2023-04-02T05:46:53;99030.91;;;11.54;73.63
50592;BME280;36548;50.506;30.834;2023-04-02T05:51:17;99032.58;;;11.55;74.27
50592;BME280;36548;50.506;30.834;2023-04-02T05:52:31;99039.48;;;11.48;74.09
50592;BME280;36548;50.506;30.834;2023-04-02T05:56:31;99039.48;;;11.48;73.23
50592;BME280;36548;50.506;30.834;2023-04-02T05:57:48;99028.64;;;11.59;73.47
50592;BME280;36548;50.506;30.834;2023-04-02T05:59:20;99036.42;;;11.52;73.05
50592;BME280;36548;50.506;30.834;2023-04-02T06:03:51;99043.19;;;11.47;73.06
50592;BME280;36548;50.506;30.834;2023-04-02T06:05:12;99055.52;;;11.59;72.96
50592;BME280;36548;50.506;30.834;2023-04-02T06:08:00;99037.39;;;11.51;72.59
50592;BME280;36548;50.506;30.834;2023-04-02T06:10:59;99055.75;;;11.46;72.73
50592;BME280;36548;50.506;30.834;2023-04-02T06:12:29;99055.14;;;11.33;73.11
50592;BME280;36548;50.506;30.834;2023-04-02T06:13:45;99041.06;;;11.50;72.87
50592;BME280;36548;50.506;30.834;2023-04-02T06:14:54;99052.74;;;11.39;72.55
50592;BME280;36548;50.506;30.834;2023-04-02T06:16:13;99053.06;;;11.46;72.68
50592;BME280;36548;50.506;30.834;2023-04-02T06:17:29;99044.50;;;11.31;72.83
50592;BME280;36548;50.506;30.834;2023-04-02T06:18:42;99053.42;;;11.32;73.05
50592;BME280;36548;50.506;30.834;2023-04-02T06:19:59;99049.67;;;11.44;73.14
50592;BME280;36548;50.506;30.834;2023-04-02T06:21:13;99049.35;;;11.37;72.95
50592;BME280;36548;50.506;30.834;2023-04-02T06:22:35;99061.81;;;11.38;72.75
50592;BME280;36548;50.506;30.834;2023-04-02T06:24:04;99044.16;;;11.46;73.04
50592;BME280;36548;50.506;30.834;2023-04-02T06:26:40;99054.17;;;11.43;73.29
50592;BME280;36548;50.506;30.834;2023-04-02T06:27:54;99061.48;;;11.32;73.10
50592;BME280;36548;50.506;30.834;2023-04-02T06:29:32;99064.09;;;11.43;73.20
50592;BME280;36548;50.506;30.834;2023-04-02T06:30:44;99065.98;;;11.31;73.36
50592;BME280;36548;50.506;30.834;2023-04-02T06:32:01;99059.31;;;11.47;73.57
50592;BME280;36548;50.506;30.834;2023-04-02T06:33:13;99058.71;;;11.43;73.20
50592;BME280;36548;50.506;30.834;2023-04-02T06:34:28;99069.59;;;11.41;73.41
50592;BME280;36548;50.506;30.834;2023-04-02T06:35:43;99073.17;;;11.52;72.77
50592;BME280;36548;50.506;30.834;2023-04-02T06:36:59;99075.62;;;11.34;72.97
50592;BME280;36548;50.506;30.834;2023-04-02T06:38:22;99072.70;;;11.37;73.43
50592;BME280;36548;50.506;30.834;2023-04-02T06:39:38;99074.74;;;11.54;72.96
50592;BME280;36548;50.506;30.834;2023-04-02T06:40:51;99079.37;;;11.42;72.77
50592;BME280;36548;50.506;30.834;2023-04-02T06:43:40;99067.19;;;11.38;72.27
50592;BME280;36548;50.506;30.834;2023-04-02T06:45:13;99070.33;;;11.22;72.76
50592;BME280;36548;50.506;30.834;2023-04-02T06:47:55;99068.05;;;11.18;73.93
50592;BME280;36548;50.506;30.834;2023-04-02T06:52:12;99064.88;;;11.34;73.65
50592;BME280;36548;50.506;30.834;2023-04-02T06:54:40;99070.44;;;11.42;73.31
50592;BME280;36548;50.506;30.834;2023-04-02T06:57:12;99075.11;;;11.40;73.06
50592;BME280;36548;50.506;30.834;2023-04-02T06:58:25;99084.09;;;11.29;73.38
50592;BME280;36548;50.506;30.834;2023-04-02T06:59:40;99072.14;;;11.43;73.08
50592;BME280;36548;50.506;30.834;2023-04-02T07:00:51;99079.18;;;11.34;72.99
50592;BME280;36548;50.506;30.834;2023-04-02T07:03:34;99087.61;;;11.30;73.12
50592;BME280;36548;50.506;30.834;2023-04-02T07:04:47;99086.51;;;11.32;73.15
50592;BME280;36548;50.506;30.834;2023-04-02T07:05:58;99088.92;;;11.35;73.03
50592;BME280;36548;50.506;30.834;2023-04-02T07:07:14;99085.31;;;11.46;73.13
50592;BME280;36548;50.506;30.834;2023-04-02T07:08:25;99095.16;;;11.36;72.96
50592;BME280;36548;50.506;30.834;2023-04-02T07:09:40;99086.70;;;11.40;73.54
50592;BME280;36548;50.506;30.834;2023-04-02T07:10:50;99087.94;;;11.36;73.13
50592;BME280;36548;50.506;30.834;2023-04-02T07:12:00;99087.10;;;11.36;73.32
50592;BME280;36548;50.506;30.834;2023-04-02T07:13:21;99086.97;;;11.37;73.17
50592;BME280;36548;50.506;30.834;2023-04-02T07:14:30;99086.97;;;11.37;73.28
50592;BME280;36548;50.506;30.834;2023-04-02T07:15:40;99085.72;;;11.41;73.14
50592;BME280;36548;50.506;30.834;2023-04-02T07:16:56;99088.31;;;11.53;73.03
50592;BME280;36548;50.506;30.834;2023-04-02T07:18:05;99086.70;;;11.40;73.07
50592;BME280;36548;50.506;30.834;2023-04-02T07:19:21;99084.66;;;11.54;73.15
50592;BME280;36548;50.506;30.834;2023-04-02T07:20:34;99093.64;;;11.43;73.23
50592;BME280;36548;50.506;30.834;2023-04-02T07:21:55;99095.13;;;11.57;73.03
50592;BME280;36548;50.506;30.834;2023-04-02T07:23:06;99096.06;;;11.46;72.93
50592;BME280;36548;50.506;30.834;2023-04-02T07:24:23;99094.39;;;11.55;72.73
50592;BME280;36548;50.506;30.834;2023-04-02T07:25:32;99097.44;;;11.40;72.90
50592;BME280;36548;50.506;30.834;2023-04-02T07:26:42;99090.95;;;11.43;72.85
50592;BME280;36548;50.506;30.834;2023-04-02T07:27:52;99100.86;;;11.42;72.71
50592;BME280;36548;50.506;30.834;2023-04-02T07:29:02;99106.34;;;11.41;72.73
50592;BME280;36548;50.506;30.834;2023-04-02T07:30:12;99098.18;;;11.42;72.50
50592;BME280;36548;50.506;30.834;2023-04-02T07:31:28;99103.80;;;11.39;72.66
50592;BME280;36548;50.506;30.834;2023-04-02T07:32:37;99100.41;;;11.37;72.70
50592;BME280;36548;50.506;30.834;2023-04-02T07:33:46;99104.20;;;11.35;72.96
50592;BME280;36548;50.506;30.834;2023-04-02T07:35:02;99091.66;;;11.45;73.17
50592;BME280;36548;50.506;30.834;2023-04-02T07:36:14;99103.92;;;11.38;73.05
50592;BME280;36548;50.506;30.834;2023-04-02T07:37:30;99109.95;;;11.51;73.27
50592;BME280;36548;50.506;30.834;2023-04-02T07:38:39;99103.55;;;11.42;72.72
50592;BME280;36548;50.506;30.834;2023-04-02T07:39:54;99099.07;;;11.53;72.52
50592;BME280;36548;50.506;30.834;2023-04-02T07:41:05;99106.75;;;11.36;72.53
50592;BME280;36548;50.506;30.834;2023-04-02T07:42:20;99105.50;;;11.40;73.04
50592;BME280;36548;50.506;30.834;2023-04-02T07:43:30;99110.69;;;11.32;72.98
50592;BME280;36548;50.506;30.834;2023-04-02T07:44:45;99106.10;;;11.44;72.98
50592;BME280;36548;50.506;30.834;2023-04-02T07:45:54;99108.97;;;11.31;73.02
50592;BME280;36548;50.506;30.834;2023-04-02T07:47:09;99097.91;;;11.46;72.97
50592;BME280;36548;50.506;30.834;2023-04-02T07:48:18;99105.04;;;11.35;72.79
50592;BME280;36548;50.506;30.834;2023-04-02T07:49:33;99101.84;;;11.41;73.12
50592;BME280;36548;50.506;30.834;2023-04-02T07:50:42;99116.93;;;11.33;72.99
50592;BME280;36548;50.506;30.834;2023-04-02T07:51:52;99108.87;;;11.33;73.11
50592;BME280;36548;50.506;30.834;2023-04-02T07:53:03;99112.27;;;11.35;72.87
50592;BME280;36548;50.506;30.834;2023-04-02T07:54:18;99103.28;;;11.46;72.82
50592;BME280;36548;50.506;30.834;2023-04-02T07:55:28;99102.63;;;11.32;72.98
50592;BME280;36548;50.506;30.834;2023-04-02T07:56:43;99103.55;;;11.42;73.17
50592;BME280;36548;50.506;30.834;2023-04-02T07:57:55;99105.91;;;11.36;73.22
50592;BME280;36548;50.506;30.834;2023-04-02T07:59:10;99110.23;;;11.48;73.18
50592;BME280;36548;50.506;30.834;2023-04-02T08:00:21;99106.23;;;11.42;73.22
50592;BME280;36548;50.506;30.834;2023-04-02T08:01:37;99104.30;;;11.54;73.28
50592;BME280;36548;50.506;30.834;2023-04-02T08:02:47;99109.36;;;11.48;72.95
50592;BME280;36548;50.506;30.834;2023-04-02T08:04:03;99106.34;;;11.62;72.74
50592;BME280;36548;50.506;30.834;2023-04-02T08:05:15;99108.98;;;11.52;72.56
50592;BME280;36548;50.506;30.834;2023-04-02T08:06:30;99106.48;;;11.60;72.86
50592;BME280;36548;50.506;30.834;2023-04-02T08:07:40;99106.67;;;11.48;73.23
50592;BME280;36548;50.506;30.834;2023-04-02T08:08:56;99099.25;;;11.61;73.17
50592;BME280;36548;50.506;30.834;2023-04-02T08:10:08;99115.80;;;11.56;72.88
50592;BME280;36548;50.506;30.834;2023-04-02T08:11:24;99114.12;;;11.65;72.54
50592;BME280;36548;50.506;30.834;2023-04-02T08:12:33;99109.55;;;11.56;72.38
50592;BME280;36548;50.506;30.834;2023-04-02T08:13:43;99125.39;;;11.59;72.17
50592;BME280;36548;50.506;30.834;2023-04-02T08:14:53;99109.68;;;11.54;72.05
50592;BME280;36548;50.506;30.834;2023-04-02T08:16:04;99108.98;;;11.52;72.18
50592;BME280;36548;50.506;30.834;2023-04-02T08:17:20;99111.85;;;11.60;72.32
50592;BME280;36548;50.506;30.834;2023-04-02T08:18:29;99117.28;;;11.49;72.31
50592;BME280;36548;50.506;30.834;2023-04-02T08:19:45;99104.58;;;11.51;73.16
50592;BME280;36548;50.506;30.834;2023-04-02T08:20:57;99117.42;;;11.48;72.97
50592;BME280;36548;50.506;30.834;2023-04-02T08:22:13;99111.85;;;11.60;72.76
50592;BME280;36548;50.506;30.834;2023-04-02T08:23:23;99117.28;;;11.49;72.78
50592;BME280;36548;50.506;30.834;2023-04-02T08:24:32;99121.95;;;11.47;73.11
50592;BME280;36548;50.506;30.834;2023-04-02T08:25:42;99115.60;;;11.48;73.06
50592;BME280;36548;50.506;30.834;2023-04-02T08:26:58;99116.36;;;11.60;72.76
50592;BME280;36548;50.506;30.834;2023-04-02T08:28:07;99118.29;;;11.48;72.78
50592;BME280;36548;50.506;30.834;2023-04-02T08:29:16;99117.28;;;11.49;72.60
50592;BME280;36548;50.506;30.834;2023-04-02T08:30:31;99112.23;;;11.56;72.85
50592;BME280;36548;50.506;30.834;2023-04-02T08:31:40;99108.52;;;11.47;72.87
50592;BME280;36548;50.506;30.834;2023-04-02T08:32:50;99114.87;;;11.46;73.11
50592;BME280;36548;50.506;30.834;2023-04-02T08:34:07;99120.16;;;11.57;73.06
50592;BME280;36548;50.506;30.834;2023-04-02T08:35:16;99118.42;;;11.47;73.01
50592;BME280;36548;50.506;30.834;2023-04-02T08:36:35;99108.30;;;11.60;73.22
50592;BME280;36548;50.506;30.834;2023-04-02T08:37:46;99126.78;;;11.53;73.16
50592;BME280;36548;50.506;30.834;2023-04-02T08:39:01;99117.52;;;11.67;73.08